createdAt,value
2018-08-18T00:00:24.201Z,19.50
2018-08-18T00:02:53.382Z,19.40
2018-08-18T00:05:22.638Z,19.40
2018-08-18T00:07:51.804Z,19.50
2018-08-18T00:10:22.391Z,19.60
2018-08-18T00:12:51.825Z,19.50
2018-08-18T00:15:20.995Z,19.30
2018-08-18T00:17:50.165Z,19.30
2018-08-18T00:20:22.306Z,19.40
2018-08-18T00:22:51.438Z,19.40
2018-08-18T00:25:20.594Z,19.30
2018-08-18T00:27:49.698Z,19.30
2018-08-18T00:30:24.218Z,19.40
2018-08-18T00:32:54.418Z,19.40
2018-08-18T00:35:23.985Z,19.50
2018-08-18T00:37:53.109Z,19.40
2018-08-18T00:40:22.262Z,19.40
2018-08-18T00:42:51.432Z,19.40
2018-08-18T00:45:20.741Z,19.40
2018-08-18T00:47:50.903Z,19.20
2018-08-18T00:50:40.218Z,19.10
2018-08-18T00:53:10.610Z,19.30
2018-08-18T00:55:39.798Z,19.30
2018-08-18T00:58:16.211Z,19.20
2018-08-18T01:00:49.521Z,19.20
2018-08-18T01:03:18.591Z,19.20
2018-08-18T01:05:47.735Z,19.20
2018-08-18T01:08:16.854Z,19.10
2018-08-18T01:10:45.998Z,19.10
2018-08-18T01:13:15.172Z,19.00
2018-08-18T01:15:44.264Z,19.10
2018-08-18T01:18:13.334Z,19.10
2018-08-18T01:20:42.465Z,19.10
2018-08-18T01:23:11.558Z,19.20
2018-08-18T01:25:40.653Z,19.20
2018-08-18T01:28:09.759Z,19.10
2018-08-18T01:30:38.870Z,19.10
2018-08-18T01:33:07.969Z,19.20
2018-08-18T01:35:37.073Z,19.20
2018-08-18T01:38:06.245Z,19.20
2018-08-18T01:40:35.322Z,19.20
2018-08-18T01:43:04.431Z,19.20
2018-08-18T01:45:33.573Z,19.20
2018-08-18T01:48:02.705Z,19.20
2018-08-18T01:50:31.749Z,19.10
2018-08-18T01:53:00.860Z,19.10
2018-08-18T01:55:29.963Z,19.10
2018-08-18T01:57:59.069Z,19.10
2018-08-18T02:00:28.662Z,19.10
2018-08-18T02:02:57.808Z,19.10
2018-08-18T02:05:26.978Z,19.10
2018-08-18T02:07:56.096Z,19.10
2018-08-18T02:10:25.192Z,19.10
2018-08-18T02:12:59.908Z,19.10
2018-08-18T02:15:29.402Z,19.10
2018-08-18T02:17:58.533Z,19.20
2018-08-18T02:20:27.672Z,19.20
2018-08-18T02:22:56.777Z,19.10
2018-08-18T02:25:25.926Z,19.10
2018-08-18T02:27:55.025Z,19.10
2018-08-18T02:30:24.541Z,18.90
2018-08-18T02:32:53.715Z,18.90
2018-08-18T02:35:23.296Z,19.00
2018-08-18T02:37:52.532Z,19.10
2018-08-18T02:40:21.756Z,19.20
2018-08-18T02:42:50.879Z,19.20
2018-08-18T02:45:20.018Z,19.20
2018-08-18T02:47:58.790Z,19.30
2018-08-18T02:50:28.018Z,19.30
2018-08-18T02:52:57.223Z,19.30
2018-08-18T02:55:26.504Z,19.30
2018-08-18T02:57:55.634Z,19.30
2018-08-18T03:00:29.851Z,19.10
2018-08-18T03:02:58.957Z,19.10
2018-08-18T03:05:28.282Z,19.20
2018-08-18T03:07:57.536Z,19.20
2018-08-18T03:10:27.649Z,19.10
2018-08-18T03:12:59.629Z,19.00
2018-08-18T03:16:07.120Z,19.10
2018-08-18T03:18:41.973Z,19.10
2018-08-18T03:21:11.129Z,19.20
2018-08-18T03:23:51.513Z,19.30
2018-08-18T03:26:26.269Z,19.30
2018-08-18T03:28:55.402Z,19.30
2018-08-18T03:31:24.510Z,19.30
2018-08-18T03:33:53.621Z,19.30
2018-08-18T03:36:30.138Z,19.30
2018-08-18T03:38:59.605Z,19.30
2018-08-18T03:41:29.378Z,19.40
2018-08-18T03:43:58.792Z,19.40
2018-08-18T03:46:27.890Z,19.30
2018-08-18T03:48:57.064Z,19.30
2018-08-18T03:51:31.744Z,19.30
2018-08-18T03:54:01.637Z,19.20
2018-08-18T03:56:30.808Z,19.30
2018-08-18T03:59:00.107Z,19.20
2018-08-18T04:01:43.538Z,19.20
2018-08-18T04:04:13.565Z,19.30
2018-08-18T04:06:43.786Z,19.30
2018-08-18T04:09:20.854Z,19.40
2018-08-18T04:11:50.345Z,19.30
2018-08-18T04:14:32.828Z,19.30
2018-08-18T04:17:01.918Z,19.30
2018-08-18T04:19:31.074Z,19.30
2018-08-18T04:22:00.189Z,19.30
2018-08-18T04:24:34.713Z,19.30
2018-08-18T04:27:03.885Z,19.30
2018-08-18T04:29:32.992Z,19.30
2018-08-18T04:32:02.472Z,19.20
2018-08-18T04:34:31.569Z,19.20
2018-08-18T04:37:01.846Z,19.20
2018-08-18T04:39:30.956Z,19.20
2018-08-18T04:42:00.080Z,19.20
2018-08-18T04:44:29.146Z,19.30
2018-08-18T04:46:58.285Z,19.30
2018-08-18T04:49:27.381Z,19.30
2018-08-18T04:51:56.521Z,19.30
2018-08-18T04:54:25.632Z,19.30
2018-08-18T04:56:54.819Z,19.40
2018-08-18T04:59:23.980Z,19.40
2018-08-18T05:01:52.995Z,19.40
2018-08-18T05:04:22.074Z,19.50
2018-08-18T05:06:51.505Z,19.40
2018-08-18T05:09:20.589Z,19.40
2018-08-18T05:11:49.724Z,19.40
2018-08-18T05:14:18.793Z,19.50
2018-08-18T05:16:47.910Z,19.60
2018-08-18T05:19:17.021Z,19.60
2018-08-18T05:21:46.150Z,19.60
2018-08-18T05:24:24.890Z,19.50
2018-08-18T05:26:55.256Z,19.50
2018-08-18T05:29:24.381Z,19.60
2018-08-18T05:31:53.542Z,19.70
2018-08-18T05:34:22.641Z,19.70
2018-08-18T05:36:51.769Z,19.80
2018-08-18T05:39:20.841Z,19.80
2018-08-18T05:41:49.982Z,19.90
2018-08-18T05:44:19.110Z,19.90
2018-08-18T05:46:48.225Z,19.80
2018-08-18T05:49:17.366Z,19.80
2018-08-18T05:51:48.744Z,19.80
2018-08-18T05:54:26.311Z,19.90
2018-08-18T05:56:55.541Z,19.80
2018-08-18T05:59:24.750Z,20.00
2018-08-18T06:01:54.008Z,20.10
2018-08-18T06:04:23.152Z,20.20
2018-08-18T06:06:53.025Z,20.20
2018-08-18T06:09:23.139Z,20.20
2018-08-18T06:11:52.413Z,20.30
2018-08-18T06:14:21.529Z,20.30
2018-08-18T06:16:50.677Z,20.30
2018-08-18T06:19:19.778Z,20.40
2018-08-18T06:21:48.902Z,20.50
2018-08-18T06:24:18.018Z,20.50
2018-08-18T06:26:47.186Z,20.60
2018-08-18T06:29:16.793Z,20.70
2018-08-18T06:31:57.180Z,20.80
2018-08-18T06:34:27.290Z,20.90
2018-08-18T06:36:56.502Z,20.90
2018-08-18T06:39:25.607Z,21.00
2018-08-18T06:41:54.734Z,21.00
2018-08-18T06:44:27.058Z,21.00
2018-08-18T06:46:56.451Z,21.10
2018-08-18T06:49:25.633Z,21.20
2018-08-18T06:51:54.746Z,21.20
2018-08-18T06:54:23.951Z,21.20
2018-08-18T06:56:53.058Z,21.20
2018-08-18T06:59:22.130Z,21.10
2018-08-18T07:01:51.218Z,21.20
2018-08-18T07:04:24.589Z,21.30
2018-08-18T07:06:53.936Z,21.40
2018-08-18T07:09:23.073Z,21.50
2018-08-18T07:11:52.178Z,21.60
2018-08-18T07:14:21.290Z,21.60
2018-08-18T07:16:50.443Z,21.80
2018-08-18T07:19:19.583Z,21.90
2018-08-18T07:21:48.653Z,22.00
2018-08-18T07:24:17.789Z,22.10
2018-08-18T07:26:46.924Z,22.30
2018-08-18T07:29:16.042Z,22.30
2018-08-18T07:31:45.173Z,22.40
2018-08-18T07:34:14.281Z,22.50
2018-08-18T07:36:43.398Z,22.70
2018-08-18T07:39:12.608Z,23.10
2018-08-18T07:41:41.715Z,23.40
2018-08-18T07:44:10.865Z,23.20
2018-08-18T07:46:40.018Z,23.10
2018-08-18T07:49:09.148Z,23.30
2018-08-18T07:51:38.302Z,23.30
2018-08-18T07:54:07.442Z,23.60
2018-08-18T07:56:36.541Z,23.70
2018-08-18T07:59:05.703Z,24.10
2018-08-18T08:01:34.874Z,24.40
2018-08-18T08:04:04.032Z,24.20
2018-08-18T08:06:33.134Z,24.30
2018-08-18T08:09:02.755Z,24.60
2018-08-18T08:11:31.852Z,24.80
2018-08-18T08:14:01.025Z,24.60
2018-08-18T08:16:30.154Z,24.70
2018-08-18T08:18:59.294Z,24.90
2018-08-18T08:21:28.457Z,25.00
2018-08-18T08:23:57.617Z,25.10
2018-08-18T08:26:26.743Z,25.30
2018-08-18T08:28:55.893Z,25.20
2018-08-18T08:31:25.049Z,25.30
2018-08-18T08:33:54.182Z,25.60
2018-08-18T08:36:23.297Z,25.40
2018-08-18T08:38:57.186Z,25.50
2018-08-18T08:41:28.915Z,25.50
2018-08-18T08:43:58.086Z,25.90
2018-08-18T08:46:27.361Z,26.00
2018-08-18T08:48:58.884Z,26.10
2018-08-18T08:51:28.042Z,26.20
2018-08-18T08:53:58.485Z,26.10
2018-08-18T08:56:34.669Z,25.80
2018-08-18T08:59:04.209Z,26.00
2018-08-18T09:01:33.526Z,26.30
2018-08-18T09:04:03.155Z,26.40
2018-08-18T09:06:32.359Z,26.50
2018-08-18T09:09:01.477Z,26.70
2018-08-18T09:11:30.585Z,27.00
2018-08-18T09:14:02.769Z,27.10
2018-08-18T09:16:33.161Z,27.00
2018-08-18T09:19:02.289Z,27.10
2018-08-18T09:21:39.414Z,26.90
2018-08-18T09:24:08.573Z,27.00
2018-08-18T09:26:42.947Z,26.90
2018-08-18T09:29:13.209Z,27.20
2018-08-18T09:31:43.354Z,27.40
2018-08-18T09:34:12.608Z,27.60
2018-08-18T09:36:43.004Z,27.70
2018-08-18T09:39:46.518Z,26.90
2018-08-18T09:42:17.090Z,27.20
2018-08-18T09:44:48.157Z,27.80
2018-08-18T09:47:17.449Z,28.00
2018-08-18T09:49:46.718Z,27.60
2018-08-18T09:52:17.805Z,28.00
2018-08-18T09:54:46.999Z,28.10
2018-08-18T09:57:16.214Z,28.40
2018-08-18T09:59:45.337Z,28.60
2018-08-18T10:02:14.981Z,28.70
2018-08-18T10:04:44.064Z,29.00
2018-08-18T10:07:13.328Z,29.30
2018-08-18T10:09:42.442Z,29.20
2018-08-18T10:12:12.118Z,29.40
2018-08-18T10:14:41.261Z,29.50
2018-08-18T10:17:10.445Z,29.60
2018-08-18T10:19:39.533Z,29.60
2018-08-18T10:22:08.649Z,29.40
2018-08-18T10:24:37.818Z,28.80
2018-08-18T10:27:07.196Z,29.30
2018-08-18T10:29:36.322Z,29.00
2018-08-18T10:32:05.652Z,29.80
2018-08-18T10:34:34.741Z,29.70
2018-08-18T10:37:05.360Z,30.00
2018-08-18T10:39:35.245Z,30.20
2018-08-18T10:42:14.474Z,29.90
2018-08-18T10:44:51.015Z,30.20
2018-08-18T10:47:21.601Z,30.40
2018-08-18T10:50:02.008Z,30.00
2018-08-18T10:52:42.842Z,29.60
2018-08-18T10:55:13.022Z,30.00
2018-08-18T10:57:54.337Z,29.80
2018-08-18T11:00:25.966Z,30.00
2018-08-18T11:02:56.205Z,30.00
2018-08-18T11:05:26.189Z,30.30
2018-08-18T11:08:01.023Z,30.70
2018-08-18T11:10:31.756Z,31.00
2018-08-18T11:13:01.186Z,31.00
2018-08-18T11:15:30.382Z,31.00
2018-08-18T11:18:00.098Z,31.30
2018-08-18T11:20:31.298Z,30.80
2018-08-18T11:23:04.025Z,30.30
2018-08-18T11:25:41.905Z,31.00
2018-08-18T11:28:11.902Z,31.30
2018-08-18T11:30:41.226Z,30.90
2018-08-18T11:33:10.402Z,30.30
2018-08-18T11:35:39.506Z,30.20
2018-08-18T11:38:15.462Z,30.70
2018-08-18T11:40:44.896Z,30.70
2018-08-18T11:43:15.405Z,30.90
2018-08-18T11:45:46.772Z,31.20
2018-08-18T11:48:27.267Z,31.40
2018-08-18T11:50:57.135Z,31.70
2018-08-18T11:53:26.290Z,31.40
2018-08-18T11:55:55.445Z,31.50
2018-08-18T11:58:25.403Z,31.70
2018-08-18T12:00:59.556Z,31.70
2018-08-18T12:03:31.295Z,31.60
2018-08-18T12:06:03.405Z,31.80
2018-08-18T12:08:33.705Z,31.30
2018-08-18T12:11:06.116Z,31.40
2018-08-18T12:13:41.702Z,31.40
2018-08-18T12:16:15.681Z,31.80
2018-08-18T12:18:45.937Z,31.60
2018-08-18T12:21:15.634Z,31.30
2018-08-18T12:23:46.176Z,31.40
2018-08-18T12:26:21.790Z,31.90
2018-08-18T12:28:52.501Z,32.10
2018-08-18T12:31:28.626Z,31.90
2018-08-18T12:33:57.813Z,31.90
2018-08-18T12:36:26.939Z,31.30
2018-08-18T12:38:57.332Z,31.90
2018-08-18T12:41:26.432Z,32.10
2018-08-18T12:43:56.946Z,31.90
2018-08-18T12:46:35.173Z,32.10
2018-08-18T12:49:05.767Z,32.00
2018-08-18T12:51:34.953Z,30.80
2018-08-18T12:54:04.126Z,31.40
2018-08-18T12:56:33.220Z,31.80
2018-08-18T12:59:02.334Z,31.70
2018-08-18T13:01:39.973Z,31.60
2018-08-18T13:04:11.989Z,31.40
2018-08-18T13:06:48.442Z,31.50
2018-08-18T13:09:21.174Z,31.20
2018-08-18T13:11:51.662Z,31.60
2018-08-18T13:14:22.446Z,32.00
2018-08-18T13:16:51.494Z,31.40
2018-08-18T13:19:22.773Z,32.20
2018-08-18T13:21:51.883Z,32.20
2018-08-18T13:24:21.022Z,32.20
2018-08-18T13:26:50.293Z,32.00
2018-08-18T13:29:19.442Z,32.00
2018-08-18T13:31:48.581Z,31.80
2018-08-18T13:34:18.418Z,32.20
2018-08-18T13:36:47.847Z,32.50
2018-08-18T13:39:19.266Z,32.40
2018-08-18T13:41:49.510Z,32.20
2018-08-18T13:44:26.358Z,32.10
2018-08-18T13:46:55.542Z,32.00
2018-08-18T13:49:25.784Z,32.40
2018-08-18T13:51:54.993Z,32.80
2018-08-18T13:54:24.097Z,32.80
2018-08-18T13:56:53.213Z,32.20
2018-08-18T13:59:44.486Z,32.20
2018-08-18T14:02:13.627Z,32.30
2018-08-18T14:04:43.593Z,32.10
2018-08-18T14:07:13.224Z,32.10
2018-08-18T14:09:47.796Z,32.30
2018-08-18T14:12:21.417Z,32.40
2018-08-18T14:14:50.669Z,32.40
2018-08-18T14:17:22.067Z,32.40
2018-08-18T14:19:52.767Z,32.30
2018-08-18T14:22:23.251Z,31.70
2018-08-18T14:24:52.849Z,31.60
2018-08-18T14:27:24.040Z,32.10
2018-08-18T14:29:55.957Z,32.00
2018-08-18T14:32:29.149Z,32.00
2018-08-18T14:35:05.898Z,32.30
2018-08-18T14:37:42.589Z,32.40
2018-08-18T14:40:15.449Z,31.90
2018-08-18T14:42:45.295Z,32.20
2018-08-18T14:45:16.806Z,32.30
2018-08-18T14:47:47.876Z,32.40
2018-08-18T14:50:20.062Z,32.00
2018-08-18T14:52:49.349Z,32.10
2018-08-18T14:55:18.744Z,31.30
2018-08-18T14:57:53.401Z,31.10
2018-08-18T15:00:22.856Z,31.10
2018-08-18T15:02:52.287Z,31.20
2018-08-18T15:05:21.393Z,31.00
2018-08-18T15:07:52.921Z,31.30
2018-08-18T15:10:35.735Z,31.20
2018-08-18T15:13:05.540Z,30.80
2018-08-18T15:15:35.335Z,29.80
2018-08-18T15:18:08.591Z,29.80
2018-08-18T15:20:38.636Z,29.80
2018-08-18T15:23:08.724Z,29.90
2018-08-18T15:25:38.975Z,29.60
2018-08-18T15:28:12.525Z,29.30
2018-08-18T15:30:42.837Z,29.20
2018-08-18T15:33:15.101Z,29.00
2018-08-18T15:35:44.250Z,29.00
2018-08-18T15:38:13.519Z,28.90
2018-08-18T15:40:43.470Z,28.70
2018-08-18T15:43:12.630Z,28.90
2018-08-18T15:46:04.475Z,28.80
2018-08-18T15:48:34.157Z,28.80
2018-08-18T15:51:03.388Z,28.90
2018-08-18T15:53:55.047Z,29.00
2018-08-18T15:56:25.206Z,28.90
2018-08-18T15:58:55.389Z,28.70
2018-08-18T16:01:26.090Z,28.50
2018-08-18T16:03:56.433Z,28.40
2018-08-18T16:06:25.558Z,28.50
2018-08-18T16:08:54.945Z,28.50
2018-08-18T16:11:24.330Z,28.60
2018-08-18T16:13:53.683Z,28.70
2018-08-18T16:16:22.765Z,28.90
2018-08-18T16:19:00.558Z,28.50
2018-08-18T16:21:32.670Z,28.40
2018-08-18T16:24:02.225Z,28.40
2018-08-18T16:26:31.391Z,28.30
2018-08-18T16:29:00.513Z,28.40
2018-08-18T16:31:30.121Z,28.60
2018-08-18T16:33:59.286Z,28.50
2018-08-18T16:36:32.834Z,28.40
2018-08-18T16:39:02.243Z,28.40
2018-08-18T16:41:31.454Z,28.30
2018-08-18T16:44:00.592Z,28.30
2018-08-18T16:46:31.254Z,28.30
2018-08-18T16:49:00.503Z,28.30
2018-08-18T16:51:29.635Z,28.40
2018-08-18T16:54:14.413Z,28.40
2018-08-18T16:56:43.770Z,28.40
2018-08-18T16:59:12.906Z,28.30
2018-08-18T17:01:42.056Z,28.20
2018-08-18T17:04:16.127Z,28.00
2018-08-18T17:06:45.525Z,27.90
2018-08-18T17:09:24.491Z,27.90
2018-08-18T17:12:04.877Z,27.70
2018-08-18T17:14:33.981Z,27.70
2018-08-18T17:17:03.142Z,27.70
2018-08-18T17:19:32.399Z,27.70
2018-08-18T17:22:01.749Z,27.70
2018-08-18T17:24:30.850Z,27.60
2018-08-18T17:26:59.951Z,27.60
2018-08-18T17:29:30.394Z,27.60
2018-08-18T17:31:59.502Z,27.50
2018-08-18T17:34:28.630Z,27.50
2018-08-18T17:36:57.763Z,27.50
2018-08-18T17:39:26.890Z,27.50
2018-08-18T17:41:56.311Z,27.40
2018-08-18T17:44:25.481Z,27.40
2018-08-18T17:46:55.585Z,27.40
2018-08-18T17:49:26.135Z,27.40
2018-08-18T17:52:05.471Z,27.30
2018-08-18T17:54:35.426Z,27.20
2018-08-18T17:57:05.122Z,27.10
2018-08-18T17:59:34.781Z,27.00
2018-08-18T18:02:11.754Z,26.90
2018-08-18T18:04:40.869Z,26.80
2018-08-18T18:07:11.133Z,26.60
2018-08-18T18:09:40.253Z,26.50
2018-08-18T18:12:29.250Z,26.40
2018-08-18T18:14:58.365Z,26.30
2018-08-18T18:17:27.966Z,26.20
2018-08-18T18:19:58.802Z,26.00
2018-08-18T18:22:34.974Z,25.90
2018-08-18T18:25:04.146Z,25.80
2018-08-18T18:27:33.353Z,25.70
2018-08-18T18:30:02.535Z,25.60
2018-08-18T18:32:31.749Z,25.50
2018-08-18T18:35:00.985Z,25.50
2018-08-18T18:37:30.141Z,25.20
2018-08-18T18:40:01.397Z,25.20
2018-08-18T18:42:30.551Z,25.10
2018-08-18T18:45:00.006Z,25.10
2018-08-18T18:47:29.502Z,25.10
2018-08-18T18:49:58.629Z,25.10
2018-08-18T18:52:27.834Z,25.10
2018-08-18T18:54:58.235Z,25.10
2018-08-18T18:57:27.397Z,25.00
2018-08-18T19:00:00.748Z,24.90
2018-08-18T19:02:36.465Z,24.80
2018-08-18T19:05:15.216Z,24.60
2018-08-18T19:07:44.369Z,24.70
2018-08-18T19:10:13.459Z,24.80
2018-08-18T19:12:42.552Z,24.80
2018-08-18T19:15:11.664Z,24.80
2018-08-18T19:17:40.757Z,24.60
2018-08-18T19:20:21.270Z,24.60
2018-08-18T19:22:51.377Z,24.70
2018-08-18T19:25:20.469Z,24.70
2018-08-18T19:27:49.675Z,24.80
2018-08-18T19:30:18.853Z,24.60
2018-08-18T19:32:51.883Z,24.70
2018-08-18T19:35:28.241Z,24.70
2018-08-18T19:37:58.793Z,24.60
2018-08-18T19:40:28.021Z,24.60
2018-08-18T19:42:57.230Z,24.40
2018-08-18T19:45:26.309Z,24.40
2018-08-18T19:47:55.401Z,24.30
2018-08-18T19:50:24.535Z,24.40
2018-08-18T19:53:02.967Z,24.40
2018-08-18T19:55:32.458Z,24.60
2018-08-18T19:58:01.585Z,24.60
2018-08-18T20:00:30.705Z,24.60
2018-08-18T20:03:19.784Z,24.40
2018-08-18T20:05:48.877Z,24.20
2018-08-18T20:08:19.719Z,24.20
2018-08-18T20:10:54.461Z,24.20
2018-08-18T20:13:24.806Z,24.30
2018-08-18T20:15:57.901Z,24.30
2018-08-18T20:18:27.094Z,24.10
2018-08-18T20:20:57.730Z,24.00
2018-08-18T20:23:26.864Z,24.10
2018-08-18T20:25:55.993Z,23.90
2018-08-18T20:28:25.196Z,23.80
2018-08-18T20:30:54.290Z,23.60
2018-08-18T20:33:23.456Z,23.40
2018-08-18T20:35:52.631Z,23.30
2018-08-18T20:38:21.776Z,23.50
2018-08-18T20:40:51.299Z,23.40
2018-08-18T20:43:21.012Z,23.40
2018-08-18T20:45:50.507Z,23.40
2018-08-18T20:48:21.910Z,23.40
2018-08-18T20:50:52.049Z,23.50
2018-08-18T20:53:21.241Z,23.40
2018-08-18T20:55:57.734Z,23.40
2018-08-18T20:58:27.349Z,23.50
2018-08-18T21:00:56.460Z,23.70
2018-08-18T21:03:41.097Z,23.80
2018-08-18T21:06:14.516Z,23.80
2018-08-18T21:08:45.010Z,23.80
2018-08-18T21:11:15.442Z,23.60
2018-08-18T21:13:49.206Z,23.40
2018-08-18T21:16:19.037Z,23.30
2018-08-18T21:18:48.239Z,23.10
2018-08-18T21:21:34.121Z,23.00
2018-08-18T21:24:03.456Z,23.00
2018-08-18T21:26:32.566Z,23.00
2018-08-18T21:30:20.009Z,23.20
2018-08-18T21:32:49.288Z,23.20
2018-08-18T21:35:19.533Z,23.20
2018-08-18T21:37:48.649Z,23.30
2018-08-18T21:40:17.756Z,23.20
2018-08-18T21:42:47.289Z,23.20
2018-08-18T21:45:17.404Z,23.10
2018-08-18T21:47:47.498Z,23.00
2018-08-18T21:50:17.393Z,22.90
2018-08-18T21:52:46.790Z,22.80
2018-08-18T21:55:16.453Z,22.70
2018-08-18T21:57:59.966Z,22.60
2018-08-18T22:00:35.252Z,22.70
2018-08-18T22:03:04.505Z,22.80
2018-08-18T22:05:33.812Z,22.90
2018-08-18T22:08:02.947Z,22.90
2018-08-18T22:10:32.093Z,22.80
2018-08-18T22:13:01.251Z,22.60
2018-08-18T22:15:32.533Z,22.30
2018-08-18T22:18:01.689Z,22.40
2018-08-18T22:20:30.861Z,22.40
2018-08-18T22:23:00.010Z,22.40
2018-08-18T22:25:29.165Z,22.30
2018-08-18T22:27:58.309Z,22.30
2018-08-18T22:30:27.809Z,22.30
2018-08-18T22:32:56.962Z,22.40
2018-08-18T22:35:26.117Z,22.30
2018-08-18T22:37:55.229Z,22.30
2018-08-18T22:40:24.445Z,22.20
2018-08-18T22:42:53.550Z,22.10
2018-08-18T22:45:26.864Z,22.10
2018-08-18T22:47:56.001Z,22.00
2018-08-18T22:50:25.166Z,21.90
2018-08-18T22:52:55.112Z,21.90
2018-08-18T22:55:24.217Z,21.90
2018-08-18T22:58:00.946Z,21.90
2018-08-18T23:00:30.949Z,21.90
2018-08-18T23:03:00.005Z,21.90
2018-08-18T23:05:29.155Z,21.80
2018-08-18T23:07:58.426Z,21.90
2018-08-18T23:10:31.592Z,21.80
2018-08-18T23:13:01.964Z,21.80
2018-08-18T23:15:31.497Z,21.80
2018-08-18T23:18:00.606Z,21.80
2018-08-18T23:20:29.756Z,21.80
2018-08-18T23:23:01.094Z,21.80
2018-08-18T23:25:32.584Z,21.60
2018-08-18T23:28:01.753Z,21.50
2018-08-18T23:30:33.403Z,21.40
2018-08-18T23:33:03.910Z,21.40
2018-08-18T23:35:33.117Z,21.40
2018-08-18T23:38:02.533Z,21.50
2018-08-18T23:40:32.912Z,21.40
2018-08-18T23:43:02.110Z,21.40
2018-08-18T23:45:40.365Z,21.40
2018-08-18T23:48:13.470Z,21.40
2018-08-18T23:50:44.641Z,21.20
2018-08-18T23:53:16.219Z,20.90
2018-08-18T23:55:51.972Z,21.00
2018-08-18T23:58:23.590Z,20.90
